Alfred, Maine
Current Conditions -  °F | °C
As of 11:55 AM on Saturday 25 Oct 2014 (Local Time) from KSFM Reporting Station
Clear Clear  
Wind Chill: 63°   Ceiling: Unl
Heat Index: 63°   Visibility: 10mi
Dew Point: 37°   Wind: 5mph
Humidity: 39%   Direction: 290°WNW
Pressure: 29.65"   Gusts: NA
Location:  43.48°N, 70.72°W
Report Text: KSFM 251555Z AUTO 29004KT 10SM CLR 17/03 A2965 RMK AO1
Loading
Personal Weather Stations






























Interactive Weather Map
Tropical Storm Tracking
New forecast layout! Learn more

10-Day Weather Forecast

Advertisements
Track Severe Weather on mobile